createdAt,value
2023-12-11T00:01:48.150Z,34.63
2023-12-11T00:04:15.598Z,23.98
2023-12-11T00:06:42.201Z,28.02
2023-12-11T00:09:08.912Z,22.33
2023-12-11T00:11:35.501Z,26.10
2023-12-11T00:14:02.078Z,34.00
2023-12-11T00:16:32.138Z,33.90
2023-12-11T00:18:59.115Z,34.78
2023-12-11T00:21:25.808Z,34.78
2023-12-11T00:23:54.196Z,41.70
2023-12-11T00:26:20.753Z,26.65
2023-12-11T00:28:48.644Z,34.67
2023-12-11T00:31:15.571Z,32.92
2023-12-11T00:33:43.249Z,33.42
2023-12-11T00:36:10.375Z,28.02
2023-12-11T00:38:36.965Z,34.40
2023-12-11T00:41:10.185Z,25.77
2023-12-11T00:43:44.782Z,29.92
2023-12-11T00:46:20.801Z,24.65
2023-12-11T00:48:47.874Z,31.70
2023-12-11T00:51:21.966Z,29.45
2023-12-11T00:53:49.069Z,35.38
2023-12-11T00:56:16.002Z,30.02
2023-12-11T00:58:42.702Z,27.95
2023-12-11T01:01:09.378Z,28.35
2023-12-11T01:03:37.812Z,30.48
2023-12-11T01:06:05.145Z,31.50
2023-12-11T01:08:32.884Z,27.40
2023-12-11T01:11:00.401Z,28.08
2023-12-11T01:13:27.183Z,26.05
2023-12-11T01:15:53.838Z,33.97
2023-12-11T01:18:21.424Z,30.27
2023-12-11T01:20:48.108Z,21.15
2023-12-11T01:23:14.622Z,20.52
2023-12-11T01:25:41.229Z,23.33
2023-12-11T01:28:07.832Z,22.55
2023-12-11T01:30:34.416Z,33.63
2023-12-11T01:33:02.714Z,29.80
2023-12-11T01:35:29.332Z,23.92
2023-12-11T01:37:56.685Z,23.50
2023-12-11T01:40:23.373Z,23.73
2023-12-11T01:42:51.067Z,29.10
2023-12-11T01:45:18.883Z,24.90
2023-12-11T01:47:46.334Z,17.52
2023-12-11T01:50:13.913Z,25.90
2023-12-11T01:52:40.537Z,27.48
2023-12-11T01:55:07.995Z,21.83
2023-12-11T01:57:35.381Z,23.48
2023-12-11T02:00:05.933Z,24.60
2023-12-11T02:02:32.549Z,29.95
2023-12-11T02:04:59.664Z,23.88
2023-12-11T02:07:26.487Z,25.95
2023-12-11T02:09:53.058Z,25.38
2023-12-11T02:12:19.646Z,28.83
2023-12-11T02:14:46.296Z,24.48
2023-12-11T02:17:14.154Z,31.38
2023-12-11T02:19:40.837Z,28.85
2023-12-11T02:22:07.570Z,33.90
2023-12-11T02:24:40.927Z,33.72
2023-12-11T02:27:07.606Z,34.05
2023-12-11T02:29:34.268Z,36.75
2023-12-11T02:32:00.789Z,30.92
2023-12-11T02:34:27.335Z,24.80
2023-12-11T02:36:54.845Z,28.23
2023-12-11T02:39:21.503Z,23.90
2023-12-11T02:41:48.008Z,22.30
2023-12-11T02:44:14.713Z,27.60
2023-12-11T02:46:41.517Z,27.10
2023-12-11T02:49:08.229Z,25.50
2023-12-11T02:51:35.053Z,21.73
2023-12-11T02:54:01.666Z,21.15
2023-12-11T02:56:28.251Z,35.33
2023-12-11T02:58:55.598Z,20.75
2023-12-11T03:01:22.233Z,23.30
2023-12-11T03:03:48.946Z,29.35
2023-12-11T03:06:22.422Z,22.30
2023-12-11T03:08:50.663Z,21.10
2023-12-11T03:11:17.239Z,22.60
2023-12-11T03:13:43.763Z,20.73
2023-12-11T03:16:16.589Z,22.58
2023-12-11T03:18:43.326Z,17.65
2023-12-11T03:21:10.361Z,21.80
2023-12-11T03:23:38.183Z,21.70
2023-12-11T03:26:05.825Z,22.80
2023-12-11T03:28:32.485Z,21.58
2023-12-11T03:30:59.862Z,19.00
2023-12-11T03:33:26.596Z,30.30
2023-12-11T03:35:53.125Z,12.32
2023-12-11T03:38:19.723Z,20.05
2023-12-11T03:40:46.315Z,24.85
2023-12-11T03:43:13.127Z,23.08
2023-12-11T03:45:39.757Z,13.80
2023-12-11T03:48:06.550Z,22.73
2023-12-11T03:50:33.414Z,16.45
2023-12-11T03:52:59.983Z,16.63
2023-12-11T03:55:26.575Z,24.92
2023-12-11T03:57:53.118Z,17.02
2023-12-11T04:00:19.780Z,14.15
2023-12-11T04:02:46.327Z,18.85
2023-12-11T04:05:13.546Z,15.25
2023-12-11T04:07:40.208Z,15.93
2023-12-11T04:10:08.157Z,19.60
2023-12-11T04:12:35.506Z,26.23
2023-12-11T04:15:02.183Z,14.30
2023-12-11T04:17:29.105Z,17.52
2023-12-11T04:19:56.879Z,25.52
2023-12-11T04:22:23.598Z,15.88
2023-12-11T04:24:50.295Z,36.67
2023-12-11T04:27:16.938Z,23.40
2023-12-11T04:29:43.495Z,21.40
2023-12-11T04:32:10.098Z,21.80
2023-12-11T04:34:36.657Z,28.75
2023-12-11T04:37:03.479Z,25.35
2023-12-11T04:39:30.043Z,26.13
2023-12-11T04:41:56.655Z,17.80
2023-12-11T04:44:23.380Z,23.05
2023-12-11T04:46:49.921Z,21.00
2023-12-11T04:49:16.664Z,20.52
2023-12-11T04:51:43.336Z,28.58
2023-12-11T04:54:10.679Z,28.20
2023-12-11T04:56:38.202Z,20.52
2023-12-11T04:59:04.738Z,24.90
2023-12-11T05:01:31.760Z,21.75
2023-12-11T05:03:58.357Z,14.40
2023-12-11T05:06:24.962Z,25.10
2023-12-11T05:08:53.198Z,23.55
2023-12-11T05:11:19.751Z,22.48
2023-12-11T05:13:47.931Z,23.08
2023-12-11T05:16:14.577Z,19.73
2023-12-11T05:18:41.356Z,23.25
2023-12-11T05:21:09.398Z,15.73
2023-12-11T05:23:36.963Z,18.65
2023-12-11T05:26:03.792Z,32.63
2023-12-11T05:28:30.414Z,23.45
2023-12-11T05:30:57.092Z,28.35
2023-12-11T05:33:23.763Z,21.17
2023-12-11T05:35:50.417Z,20.08
2023-12-11T05:38:16.990Z,20.67
2023-12-11T05:40:43.757Z,28.33
2023-12-11T05:43:10.413Z,23.70
2023-12-11T05:45:37.563Z,25.05
2023-12-11T05:48:04.878Z,17.33
2023-12-11T05:50:34.184Z,21.50
2023-12-11T05:53:01.208Z,20.83
2023-12-11T05:55:27.788Z,20.83
2023-12-11T05:57:55.264Z,24.85
2023-12-11T06:00:22.156Z,27.98
2023-12-11T06:02:48.741Z,35.08
2023-12-11T06:05:15.434Z,17.95
2023-12-11T06:07:42.835Z,18.92
2023-12-11T06:10:10.235Z,14.60
2023-12-11T06:12:37.171Z,22.88
2023-12-11T06:15:04.859Z,19.75
2023-12-11T06:17:31.815Z,24.67
2023-12-11T06:19:58.589Z,22.30
2023-12-11T06:22:25.204Z,19.95
2023-12-11T06:24:51.892Z,30.65
2023-12-11T06:27:18.469Z,14.10
2023-12-11T06:29:45.082Z,25.92
2023-12-11T06:32:11.685Z,20.92
2023-12-11T06:34:39.052Z,32.58
2023-12-11T06:37:06.515Z,15.90
2023-12-11T06:39:34.328Z,27.85
2023-12-11T06:42:00.874Z,20.40
2023-12-11T06:44:28.373Z,25.85
2023-12-11T06:46:55.565Z,28.80
2023-12-11T06:49:22.603Z,21.98
2023-12-11T06:51:50.305Z,29.10
2023-12-11T06:54:17.043Z,30.83
2023-12-11T06:56:43.664Z,21.52
2023-12-11T06:59:10.437Z,18.70
2023-12-11T07:01:37.455Z,22.70
2023-12-11T07:04:04.922Z,22.67
2023-12-11T07:06:31.855Z,28.00
2023-12-11T07:08:59.045Z,16.92
2023-12-11T07:11:26.588Z,26.00
2023-12-11T07:13:54.867Z,25.58
2023-12-11T07:16:21.869Z,20.88
2023-12-11T07:18:48.585Z,25.50
2023-12-11T07:21:15.313Z,26.35
2023-12-11T07:23:41.996Z,26.95
2023-12-11T07:26:10.333Z,24.00
2023-12-11T07:28:37.933Z,17.52
2023-12-11T07:31:06.644Z,26.92
2023-12-11T07:33:34.298Z,21.30
2023-12-11T07:36:02.752Z,19.95
2023-12-11T07:38:30.028Z,22.95
2023-12-11T07:40:57.693Z,22.67
2023-12-11T07:43:24.981Z,12.52
2023-12-11T07:45:53.097Z,20.30
2023-12-11T07:48:20.882Z,18.40
2023-12-11T07:50:47.692Z,18.80
2023-12-11T07:53:14.411Z,18.63
2023-12-11T07:55:42.355Z,17.13
2023-12-11T07:58:09.109Z,17.83
2023-12-11T08:00:35.739Z,16.00
2023-12-11T08:03:04.216Z,17.25
2023-12-11T08:05:31.217Z,15.35
2023-12-11T08:07:57.772Z,20.17
2023-12-11T08:10:24.408Z,18.30
2023-12-11T08:12:55.132Z,18.67
2023-12-11T08:15:21.759Z,21.73
2023-12-11T08:17:48.386Z,14.63
2023-12-11T08:20:18.909Z,21.20
2023-12-11T08:22:46.706Z,17.77
2023-12-11T08:25:14.599Z,19.92
2023-12-11T08:27:42.800Z,11.85
2023-12-11T08:30:11.941Z,15.40
2023-12-11T08:32:41.042Z,18.58
2023-12-11T08:35:09.517Z,22.77
2023-12-11T08:37:36.823Z,15.80
2023-12-11T08:40:07.802Z,19.38
2023-12-11T08:42:40.540Z,17.23
2023-12-11T08:45:09.343Z,16.25
2023-12-11T08:47:39.007Z,26.08
2023-12-11T08:50:09.499Z,15.50
2023-12-11T08:52:37.966Z,24.40
2023-12-11T08:55:05.354Z,18.45
2023-12-11T08:57:32.098Z,21.33
2023-12-11T08:59:59.053Z,23.30
2023-12-11T09:02:28.147Z,16.40
2023-12-11T09:04:54.705Z,24.75
2023-12-11T09:07:21.396Z,22.15
2023-12-11T09:09:48.068Z,23.67
2023-12-11T09:12:23.453Z,19.65
2023-12-11T09:14:57.837Z,18.13
2023-12-11T09:17:24.637Z,23.60
2023-12-11T09:19:55.306Z,23.80
2023-12-11T09:24:50.134Z,23.77
2023-12-11T09:27:16.687Z,21.98
2023-12-11T09:29:43.198Z,16.98
2023-12-11T09:32:09.801Z,19.13
2023-12-11T09:34:36.605Z,20.75
2023-12-11T09:37:04.191Z,20.50
2023-12-11T09:39:30.838Z,26.35
2023-12-11T09:41:58.414Z,24.35
2023-12-11T09:44:26.553Z,20.42
2023-12-11T09:47:19.520Z,20.10
2023-12-11T09:49:49.846Z,20.23
2023-12-11T09:52:16.847Z,18.23
2023-12-11T09:54:43.609Z,19.35
2023-12-11T09:57:14.894Z,14.98
2023-12-11T09:59:42.482Z,18.20
2023-12-11T10:02:18.931Z,24.17
2023-12-11T10:05:01.457Z,21.38
2023-12-11T10:07:28.069Z,19.27
2023-12-11T10:09:54.768Z,23.60
2023-12-11T10:12:21.450Z,18.40
2023-12-11T10:15:02.780Z,28.35
2023-12-11T10:17:30.769Z,19.25
2023-12-11T10:19:57.735Z,18.75
2023-12-11T10:22:34.609Z,25.95
2023-12-11T10:25:01.735Z,19.38
2023-12-11T10:27:28.644Z,20.45
2023-12-11T10:30:09.065Z,18.75
2023-12-11T10:32:35.757Z,17.88
2023-12-11T10:35:03.029Z,26.85
2023-12-11T10:37:32.472Z,12.02
2023-12-11T10:39:59.960Z,20.38
2023-12-11T10:42:27.845Z,18.25
2023-12-11T10:44:55.727Z,23.38
2023-12-11T10:47:23.415Z,20.42
2023-12-11T10:49:50.978Z,20.42
2023-12-11T10:52:18.328Z,20.67
2023-12-11T10:54:46.584Z,17.05
2023-12-11T10:57:18.365Z,20.77
2023-12-11T10:59:46.469Z,19.92
2023-12-11T11:02:18.097Z,26.13
2023-12-11T11:07:36.259Z,22.20
2023-12-11T11:10:24.787Z,24.30
2023-12-11T11:13:06.422Z,29.52
2023-12-11T11:15:34.029Z,25.83
2023-12-11T11:18:01.780Z,21.48
2023-12-11T11:20:32.174Z,16.90
2023-12-11T11:23:20.139Z,28.90
2023-12-11T11:25:53.166Z,19.65
2023-12-11T11:28:43.717Z,18.40
2023-12-11T11:33:52.050Z,23.25
2023-12-11T11:36:20.679Z,17.33
2023-12-11T11:39:02.483Z,18.55
2023-12-11T11:41:31.764Z,21.02
2023-12-11T11:44:08.049Z,17.35
2023-12-11T11:46:54.318Z,20.05
2023-12-11T11:49:35.233Z,25.00
2023-12-11T11:52:10.557Z,20.02
2023-12-11T11:54:38.890Z,21.55
2023-12-11T11:57:07.483Z,16.48
2023-12-11T11:59:46.611Z,21.15
2023-12-11T12:02:13.245Z,17.42
2023-12-11T12:04:40.136Z,23.30
2023-12-11T12:07:09.140Z,21.23
2023-12-11T12:09:35.972Z,19.85
2023-12-11T12:12:04.239Z,18.55
2023-12-11T12:14:30.788Z,20.20
2023-12-11T12:16:57.460Z,26.52
2023-12-11T12:19:32.635Z,25.08
2023-12-11T12:22:00.311Z,20.38
2023-12-11T12:24:27.146Z,26.58
2023-12-11T12:26:58.856Z,23.13
2023-12-11T12:31:54.262Z,15.93
2023-12-11T12:34:22.120Z,20.20
2023-12-11T12:36:48.992Z,18.58
2023-12-11T12:39:19.247Z,15.60
2023-12-11T12:41:52.141Z,17.45
2023-12-11T12:44:20.671Z,22.38
2023-12-11T12:46:48.163Z,14.50
2023-12-11T12:49:19.373Z,21.38
2023-12-11T12:51:48.572Z,21.15
2023-12-11T12:54:16.370Z,18.83
2023-12-11T12:56:44.503Z,14.93
2023-12-11T12:59:11.996Z,19.65
2023-12-11T13:01:40.791Z,25.17
2023-12-11T13:04:08.963Z,16.17
2023-12-11T13:06:36.341Z,20.38
2023-12-11T13:09:04.325Z,20.63
2023-12-11T13:11:44.034Z,17.50
2023-12-11T13:14:13.256Z,18.73
2023-12-11T13:16:45.094Z,24.65
2023-12-11T13:19:12.862Z,18.92
2023-12-11T13:21:39.620Z,22.00
2023-12-11T13:24:06.893Z,18.83
2023-12-11T13:26:33.372Z,16.98
2023-12-11T13:28:59.989Z,20.55
2023-12-11T13:31:26.746Z,19.85
2023-12-11T13:33:53.681Z,18.08
2023-12-11T13:36:20.524Z,15.38
2023-12-11T13:38:47.207Z,19.67
2023-12-11T13:41:15.631Z,22.05
2023-12-11T13:43:42.444Z,24.90
2023-12-11T13:46:09.178Z,16.45
2023-12-11T13:48:36.875Z,17.70
2023-12-11T13:51:04.369Z,17.88
2023-12-11T13:53:30.890Z,14.82
2023-12-11T13:55:57.406Z,35.17
2023-12-11T13:58:24.116Z,24.05
2023-12-11T14:00:52.640Z,20.10
2023-12-11T14:03:22.259Z,27.30
2023-12-11T14:05:52.803Z,15.25
2023-12-11T14:08:19.492Z,15.20
2023-12-11T14:10:46.385Z,14.77
2023-12-11T14:13:16.015Z,19.25
2023-12-11T14:15:43.879Z,15.63
2023-12-11T14:18:11.939Z,19.33
2023-12-11T14:20:38.903Z,21.00
2023-12-11T14:23:05.828Z,16.98
2023-12-11T14:25:33.115Z,20.15
2023-12-11T14:28:05.862Z,18.63
2023-12-11T14:30:38.046Z,32.38
2023-12-11T14:35:32.321Z,19.48
2023-12-11T14:37:59.082Z,14.88
2023-12-11T14:40:25.790Z,11.85
2023-12-11T14:42:52.510Z,19.58
2023-12-11T14:45:19.143Z,15.50
2023-12-11T14:47:45.824Z,13.35
2023-12-11T14:50:12.763Z,16.30
2023-12-11T14:52:39.385Z,13.77
2023-12-11T14:55:08.155Z,17.20
2023-12-11T14:57:35.012Z,15.43
2023-12-11T15:00:02.694Z,15.90
2023-12-11T15:02:29.506Z,11.27
2023-12-11T15:04:56.034Z,8.73
2023-12-11T15:07:22.622Z,15.02
2023-12-11T15:09:49.315Z,12.93
2023-12-11T15:12:16.732Z,12.40
2023-12-11T15:14:44.283Z,14.70
2023-12-11T15:17:11.923Z,16.02
2023-12-11T15:19:42.203Z,16.92
2023-12-11T15:22:09.029Z,11.15
2023-12-11T15:24:35.724Z,18.15
2023-12-11T15:27:04.965Z,17.02
2023-12-11T15:29:31.672Z,13.40
2023-12-11T15:31:58.308Z,15.00
2023-12-11T15:34:25.119Z,13.20
2023-12-11T15:36:51.784Z,18.05
2023-12-11T15:39:18.371Z,15.35
2023-12-11T15:41:45.229Z,18.17
2023-12-11T15:44:12.070Z,14.55
2023-12-11T15:46:41.233Z,10.63
2023-12-11T15:49:07.906Z,11.57
2023-12-11T15:51:34.571Z,19.38
2023-12-11T15:54:02.714Z,21.50
2023-12-11T15:56:32.855Z,13.10
2023-12-11T15:58:59.565Z,11.93
2023-12-11T16:01:27.215Z,11.32
2023-12-11T16:03:56.987Z,7.57
2023-12-11T16:06:24.457Z,11.55
2023-12-11T16:08:53.210Z,11.98
2023-12-11T16:34:50.335Z,11.80
2023-12-11T16:37:16.972Z,12.80
2023-12-11T16:39:44.063Z,12.00
2023-12-11T16:42:10.635Z,11.27
2023-12-11T16:44:37.343Z,11.70
2023-12-11T16:47:05.066Z,12.13
2023-12-11T16:49:35.821Z,10.88
2023-12-11T16:52:09.703Z,9.95
2023-12-11T16:54:36.285Z,14.25
2023-12-11T16:57:03.070Z,13.80
2023-12-11T16:59:29.592Z,12.38
2023-12-11T17:01:56.200Z,12.60
2023-12-11T17:04:22.923Z,12.80
2023-12-11T17:06:49.554Z,8.75
2023-12-11T17:09:16.148Z,9.75
2023-12-11T17:11:44.705Z,7.18
2023-12-11T17:14:12.042Z,10.57
2023-12-11T17:16:38.626Z,10.57
2023-12-11T17:19:05.318Z,8.68
2023-12-11T17:21:34.180Z,6.95
2023-12-11T17:24:01.239Z,7.43
2023-12-11T17:26:27.757Z,9.73
2023-12-11T17:28:54.318Z,13.20
2023-12-11T17:31:20.962Z,16.23
2023-12-11T17:33:47.751Z,11.50
2023-12-11T17:36:17.518Z,10.60
2023-12-11T17:38:44.033Z,10.70
2023-12-11T17:41:10.673Z,16.85
2023-12-11T17:43:37.221Z,12.30
2023-12-11T17:46:04.446Z,12.52
2023-12-11T17:48:31.543Z,12.65
2023-12-11T17:50:58.154Z,12.50
2023-12-11T17:53:24.717Z,11.10
2023-12-11T17:55:51.347Z,10.90
2023-12-11T17:58:17.931Z,7.07
2023-12-11T18:00:44.510Z,6.43
2023-12-11T18:03:11.139Z,7.18
2023-12-11T18:05:37.911Z,5.93
2023-12-11T18:08:04.782Z,7.97
2023-12-11T18:10:34.412Z,7.50
2023-12-11T18:13:01.429Z,5.55
2023-12-11T18:15:27.976Z,7.15
2023-12-11T18:17:54.561Z,3.78
2023-12-11T18:20:21.397Z,2.28
2023-12-11T18:22:48.064Z,3.80
2023-12-11T18:25:14.662Z,2.55
2023-12-11T18:27:41.759Z,3.47
2023-12-11T18:30:08.868Z,3.35
2023-12-11T18:32:35.864Z,4.10
2023-12-11T18:35:03.778Z,1.80
2023-12-11T18:37:30.797Z,4.35
2023-12-11T18:39:57.590Z,4.18
2023-12-11T18:42:24.190Z,3.53
2023-12-11T18:44:51.018Z,2.70
2023-12-11T18:47:17.538Z,5.10
2023-12-11T18:49:44.379Z,3.83
2023-12-11T18:52:13.100Z,4.10
2023-12-11T18:54:40.244Z,4.85
2023-12-11T18:57:06.855Z,5.10
2023-12-11T18:59:33.663Z,3.80
2023-12-11T19:02:00.390Z,2.95
2023-12-11T19:04:27.082Z,4.82
2023-12-11T19:06:53.753Z,4.10
2023-12-11T19:09:20.463Z,4.72
2023-12-11T19:11:48.759Z,2.47
2023-12-11T19:14:15.274Z,1.63
2023-12-11T19:16:41.812Z,5.35
2023-12-11T19:19:11.959Z,4.22
2023-12-11T19:21:40.676Z,5.85
2023-12-11T19:24:11.189Z,3.47
2023-12-11T19:26:40.159Z,2.55
2023-12-11T19:32:04.849Z,1.92
2023-12-11T19:34:31.690Z,1.95
2023-12-11T19:36:58.539Z,2.67
2023-12-11T19:39:25.397Z,21.75
2023-12-11T19:41:52.110Z,4.00
2023-12-11T19:44:19.033Z,2.90
2023-12-11T19:46:46.946Z,2.75
2023-12-11T19:49:13.929Z,4.60
2023-12-11T19:51:43.921Z,4.40
2023-12-11T19:54:10.882Z,2.47
2023-12-11T19:56:37.453Z,3.95
2023-12-11T19:59:04.990Z,2.22
2023-12-11T20:01:32.228Z,4.53
2023-12-11T20:03:59.142Z,7.63
2023-12-11T20:06:27.249Z,5.95
2023-12-11T20:08:54.666Z,6.70
2023-12-11T20:11:21.577Z,2.90
2023-12-11T20:13:50.417Z,4.03
2023-12-11T20:16:18.329Z,5.68
2023-12-11T20:18:45.297Z,5.18
2023-12-11T20:21:11.959Z,9.07
2023-12-11T20:23:38.537Z,6.32
2023-12-11T20:26:06.542Z,13.82
2023-12-11T20:28:33.792Z,6.60
2023-12-11T20:31:00.694Z,8.18
2023-12-11T20:33:27.383Z,10.95
2023-12-11T20:35:54.644Z,8.43
2023-12-11T20:38:21.354Z,8.85
2023-12-11T20:40:48.681Z,14.70
2023-12-11T20:43:15.500Z,8.35
2023-12-11T20:45:42.313Z,7.82
2023-12-11T20:48:08.927Z,7.97
2023-12-11T20:50:38.267Z,8.40
2023-12-11T20:53:04.824Z,10.73
2023-12-11T20:55:31.730Z,7.38
2023-12-11T20:57:58.294Z,8.65
2023-12-11T21:00:24.927Z,9.13
2023-12-11T21:02:51.555Z,9.07
2023-12-11T21:05:18.298Z,9.20
2023-12-11T21:07:44.997Z,11.25
2023-12-11T21:10:11.754Z,5.93
2023-12-11T21:12:38.406Z,9.68
2023-12-11T21:15:05.432Z,9.38
2023-12-11T21:17:32.609Z,5.60
2023-12-11T21:19:59.449Z,11.82
2023-12-11T21:22:26.148Z,7.05
2023-12-11T21:24:52.801Z,12.30
2023-12-11T21:27:19.348Z,9.13
2023-12-11T21:29:45.926Z,8.52
2023-12-11T21:32:12.470Z,5.13
2023-12-11T21:34:44.222Z,8.52
2023-12-11T21:37:11.502Z,5.60
2023-12-11T21:39:38.150Z,4.90
2023-12-11T21:42:05.259Z,5.05
2023-12-11T21:44:32.194Z,7.95
2023-12-11T21:46:59.447Z,7.13
2023-12-11T21:49:27.018Z,3.55
2023-12-11T21:51:53.774Z,4.47
2023-12-11T21:54:21.560Z,4.47
2023-12-11T21:56:48.124Z,8.57
2023-12-11T21:59:16.735Z,2.72
2023-12-11T22:01:43.614Z,4.13
2023-12-11T22:04:12.060Z,4.18
2023-12-11T22:06:39.124Z,5.22
2023-12-11T22:09:05.649Z,4.05
2023-12-11T22:11:32.219Z,3.53
2023-12-11T22:13:58.988Z,3.08
2023-12-11T22:16:26.365Z,4.20
2023-12-11T22:18:53.233Z,2.28
2023-12-11T22:21:27.081Z,4.55
2023-12-11T22:23:54.732Z,3.88
2023-12-11T22:26:23.007Z,2.97
2023-12-11T22:28:49.475Z,2.33
2023-12-11T22:31:16.030Z,8.13
2023-12-11T22:33:42.732Z,3.38
2023-12-11T22:36:09.499Z,3.67
2023-12-11T22:38:36.253Z,2.22
2023-12-11T22:41:03.041Z,2.25
2023-12-11T22:43:29.763Z,3.17
2023-12-11T22:45:56.394Z,2.25
2023-12-11T22:48:23.184Z,2.17
2023-12-11T22:50:49.784Z,1.73
2023-12-11T22:53:16.302Z,2.42
2023-12-11T22:55:42.930Z,2.25
2023-12-11T22:58:16.158Z,2.80
2023-12-11T23:00:44.019Z,2.85
2023-12-11T23:03:10.727Z,2.58
2023-12-11T23:05:37.488Z,3.83
2023-12-11T23:08:04.485Z,3.83
2023-12-11T23:10:31.099Z,3.15
2023-12-11T23:12:57.681Z,3.08
2023-12-11T23:15:24.413Z,2.53
2023-12-11T23:17:50.944Z,2.55
2023-12-11T23:20:17.744Z,2.83
2023-12-11T23:22:44.685Z,3.00
2023-12-11T23:25:11.622Z,2.13
2023-12-11T23:27:38.665Z,7.05
2023-12-11T23:30:08.184Z,2.08
2023-12-11T23:32:35.944Z,5.25
2023-12-11T23:35:04.049Z,2.78
2023-12-11T23:37:31.880Z,4.20
2023-12-11T23:39:59.130Z,4.63
2023-12-11T23:42:25.736Z,2.58
2023-12-11T23:44:52.342Z,3.75
2023-12-11T23:47:18.970Z,3.40
2023-12-11T23:49:45.939Z,3.38
2023-12-11T23:52:12.560Z,4.13
2023-12-11T23:54:39.085Z,2.75
2023-12-11T23:57:05.537Z,6.30
2023-12-11T23:59:32.634Z,3.33
